sensor_id;sensor_type;location;lat;lon;timestamp;temperature;humidity
17621;DHT22;8929;51.008;6.804;2022-10-18T00:00:49;17.50;99.90
17621;DHT22;8929;51.008;6.804;2022-10-18T00:03:15;17.40;99.90
17621;DHT22;8929;51.008;6.804;2022-10-18T00:05:40;17.50;99.90
17621;DHT22;8929;51.008;6.804;2022-10-18T00:08:06;17.50;99.90
17621;DHT22;8929;51.008;6.804;2022-10-18T00:10:31;17.40;99.90
17621;DHT22;8929;51.008;6.804;2022-10-18T00:12:57;17.50;99.90
17621;DHT22;8929;51.008;6.804;2022-10-18T00:15:22;17.40;99.90
17621;DHT22;8929;51.008;6.804;2022-10-18T00:17:48;17.40;99.90
17621;DHT22;8929;51.008;6.804;2022-10-18T00:20:13;17.50;99.90
17621;DHT22;8929;51.008;6.804;2022-10-18T00:22:39;17.50;99.90
17621;DHT22;8929;51.008;6.804;2022-10-18T00:25:05;17.50;99.90
17621;DHT22;8929;51.008;6.804;2022-10-18T00:27:31;17.50;99.90
17621;DHT22;8929;51.008;6.804;2022-10-18T00:29:56;17.50;99.90
17621;DHT22;8929;51.008;6.804;2022-10-18T00:32:22;17.60;99.90
17621;DHT22;8929;51.008;6.804;2022-10-18T00:34:48;17.50;99.90
17621;DHT22;8929;51.008;6.804;2022-10-18T00:37:13;17.50;99.90
17621;DHT22;8929;51.008;6.804;2022-10-18T00:39:39;17.60;99.90
17621;DHT22;8929;51.008;6.804;2022-10-18T00:42:04;17.60;99.90
17621;DHT22;8929;51.008;6.804;2022-10-18T00:46:56;17.60;99.90
17621;DHT22;8929;51.008;6.804;2022-10-18T00:49:25;17.50;99.90
17621;DHT22;8929;51.008;6.804;2022-10-18T00:51:56;17.50;99.90
17621;DHT22;8929;51.008;6.804;2022-10-18T00:54:22;17.40;99.90
17621;DHT22;8929;51.008;6.804;2022-10-18T00:56:48;17.40;99.90
17621;DHT22;8929;51.008;6.804;2022-10-18T00:59:14;17.50;99.90
17621;DHT22;8929;51.008;6.804;2022-10-18T01:01:40;17.40;99.90
17621;DHT22;8929;51.008;6.804;2022-10-18T01:04:05;17.40;99.90
17621;DHT22;8929;51.008;6.804;2022-10-18T01:06:31;17.50;99.90
17621;DHT22;8929;51.008;6.804;2022-10-18T01:09:13;17.60;99.90
17621;DHT22;8929;51.008;6.804;2022-10-18T01:31:58;17.50;99.90
17621;DHT22;8929;51.008;6.804;2022-10-18T01:34:25;17.50;99.90
17621;DHT22;8929;51.008;6.804;2022-10-18T01:36:53;17.50;99.90
17621;DHT22;8929;51.008;6.804;2022-10-18T01:39:23;17.50;99.90
17621;DHT22;8929;51.008;6.804;2022-10-18T01:41:50;17.50;99.90
17621;DHT22;8929;51.008;6.804;2022-10-18T01:44:21;17.50;99.90
17621;DHT22;8929;51.008;6.804;2022-10-18T01:46:48;17.50;99.90
17621;DHT22;8929;51.008;6.804;2022-10-18T01:49:14;17.50;99.90
17621;DHT22;8929;51.008;6.804;2022-10-18T01:51:40;17.60;99.90
17621;DHT22;8929;51.008;6.804;2022-10-18T01:54:05;17.60;99.90
17621;DHT22;8929;51.008;6.804;2022-10-18T02:04:53;17.50;99.90
17621;DHT22;8929;51.008;6.804;2022-10-18T02:07:01;17.50;99.90
17621;DHT22;8929;51.008;6.804;2022-10-18T02:09:32;17.50;99.90
17621;DHT22;8929;51.008;6.804;2022-10-18T02:11:59;17.50;99.90
17621;DHT22;8929;51.008;6.804;2022-10-18T02:14:26;17.50;99.90
17621;DHT22;8929;51.008;6.804;2022-10-18T02:16:55;17.40;99.90
17621;DHT22;8929;51.008;6.804;2022-10-18T02:19:29;17.40;99.90
17621;DHT22;8929;51.008;6.804;2022-10-18T02:21:57;17.40;99.90
17621;DHT22;8929;51.008;6.804;2022-10-18T02:24:24;17.40;99.90
17621;DHT22;8929;51.008;6.804;2022-10-18T02:26:51;17.40;99.90
17621;DHT22;8929;51.008;6.804;2022-10-18T02:29:16;17.40;99.90
17621;DHT22;8929;51.008;6.804;2022-10-18T02:31:43;17.40;99.90
17621;DHT22;8929;51.008;6.804;2022-10-18T02:36:53;17.40;99.90
17621;DHT22;8929;51.008;6.804;2022-10-18T02:39:26;17.40;99.90
17621;DHT22;8929;51.008;6.804;2022-10-18T02:41:53;17.40;99.90
17621;DHT22;8929;51.008;6.804;2022-10-18T02:44:19;17.40;99.90
17621;DHT22;8929;51.008;6.804;2022-10-18T02:46:44;17.50;99.90
17621;DHT22;8929;51.008;6.804;2022-10-18T02:49:10;17.40;99.90
17621;DHT22;8929;51.008;6.804;2022-10-18T02:51:36;17.50;99.90
17621;DHT22;8929;51.008;6.804;2022-10-18T02:54:01;17.40;99.90
17621;DHT22;8929;51.008;6.804;2022-10-18T02:56:27;17.30;99.90
17621;DHT22;8929;51.008;6.804;2022-10-18T02:58:52;17.40;99.90
17621;DHT22;8929;51.008;6.804;2022-10-18T03:01:17;17.50;99.90
17621;DHT22;8929;51.008;6.804;2022-10-18T03:03:43;17.50;99.90
17621;DHT22;8929;51.008;6.804;2022-10-18T03:06:08;17.40;99.90
17621;DHT22;8929;51.008;6.804;2022-10-18T03:08:34;17.30;99.90
17621;DHT22;8929;51.008;6.804;2022-10-18T03:11:00;17.40;99.90
17621;DHT22;8929;51.008;6.804;2022-10-18T03:13:25;17.30;99.90
17621;DHT22;8929;51.008;6.804;2022-10-18T03:15:51;17.40;99.90
17621;DHT22;8929;51.008;6.804;2022-10-18T03:18:16;17.40;99.90
17621;DHT22;8929;51.008;6.804;2022-10-18T03:20:41;17.30;99.90
17621;DHT22;8929;51.008;6.804;2022-10-18T03:23:07;17.40;99.90
17621;DHT22;8929;51.008;6.804;2022-10-18T03:25:32;17.40;99.90
17621;DHT22;8929;51.008;6.804;2022-10-18T03:27:58;17.50;99.90
17621;DHT22;8929;51.008;6.804;2022-10-18T03:30:24;17.40;99.90
17621;DHT22;8929;51.008;6.804;2022-10-18T03:32:49;17.50;99.90
17621;DHT22;8929;51.008;6.804;2022-10-18T03:35:15;17.30;99.90
17621;DHT22;8929;51.008;6.804;2022-10-18T03:37:40;17.30;99.90
17621;DHT22;8929;51.008;6.804;2022-10-18T03:40:06;17.30;99.90
17621;DHT22;8929;51.008;6.804;2022-10-18T03:42:32;17.30;99.90
17621;DHT22;8929;51.008;6.804;2022-10-18T03:44:57;17.30;99.90
17621;DHT22;8929;51.008;6.804;2022-10-18T03:47:22;17.30;99.90
17621;DHT22;8929;51.008;6.804;2022-10-18T03:49:48;17.30;99.90
17621;DHT22;8929;51.008;6.804;2022-10-18T03:52:13;17.30;99.90
17621;DHT22;8929;51.008;6.804;2022-10-18T03:54:39;17.30;99.90
17621;DHT22;8929;51.008;6.804;2022-10-18T03:57:04;17.30;99.90
17621;DHT22;8929;51.008;6.804;2022-10-18T03:59:30;17.30;99.90
17621;DHT22;8929;51.008;6.804;2022-10-18T04:01:55;17.30;99.90
17621;DHT22;8929;51.008;6.804;2022-10-18T04:04:21;17.30;99.90
17621;DHT22;8929;51.008;6.804;2022-10-18T04:06:46;17.40;99.90
17621;DHT22;8929;51.008;6.804;2022-10-18T04:09:12;17.40;99.90
17621;DHT22;8929;51.008;6.804;2022-10-18T04:11:37;17.50;99.90
17621;DHT22;8929;51.008;6.804;2022-10-18T04:14:03;17.40;99.90
17621;DHT22;8929;51.008;6.804;2022-10-18T04:16:28;17.30;99.90
17621;DHT22;8929;51.008;6.804;2022-10-18T04:18:54;17.40;99.90
17621;DHT22;8929;51.008;6.804;2022-10-18T04:21:19;17.30;99.90
17621;DHT22;8929;51.008;6.804;2022-10-18T04:23:48;17.30;99.90
17621;DHT22;8929;51.008;6.804;2022-10-18T04:26:13;17.30;99.90
17621;DHT22;8929;51.008;6.804;2022-10-18T04:28:41;17.30;99.90
17621;DHT22;8929;51.008;6.804;2022-10-18T04:31:06;17.40;99.90
17621;DHT22;8929;51.008;6.804;2022-10-18T04:33:32;17.50;99.90
17621;DHT22;8929;51.008;6.804;2022-10-18T04:35:57;17.40;99.90
17621;DHT22;8929;51.008;6.804;2022-10-18T04:38:23;17.40;99.90
17621;DHT22;8929;51.008;6.804;2022-10-18T04:40:48;17.40;99.90
17621;DHT22;8929;51.008;6.804;2022-10-18T04:43:14;17.40;99.90
17621;DHT22;8929;51.008;6.804;2022-10-18T04:45:39;17.40;99.90
17621;DHT22;8929;51.008;6.804;2022-10-18T04:48:05;17.40;99.90
17621;DHT22;8929;51.008;6.804;2022-10-18T04:50:30;17.40;99.90
17621;DHT22;8929;51.008;6.804;2022-10-18T04:52:56;17.40;99.90
17621;DHT22;8929;51.008;6.804;2022-10-18T04:55:21;17.50;99.90
17621;DHT22;8929;51.008;6.804;2022-10-18T04:57:47;17.40;99.90
17621;DHT22;8929;51.008;6.804;2022-10-18T05:00:12;17.40;99.90
17621;DHT22;8929;51.008;6.804;2022-10-18T05:02:38;17.40;99.90
17621;DHT22;8929;51.008;6.804;2022-10-18T05:05:03;17.40;99.90
17621;DHT22;8929;51.008;6.804;2022-10-18T05:07:29;17.40;99.90
17621;DHT22;8929;51.008;6.804;2022-10-18T05:09:54;17.40;99.90
17621;DHT22;8929;51.008;6.804;2022-10-18T05:12:20;17.40;99.90
17621;DHT22;8929;51.008;6.804;2022-10-18T05:14:46;17.50;99.90
17621;DHT22;8929;51.008;6.804;2022-10-18T05:17:12;17.40;99.90
17621;DHT22;8929;51.008;6.804;2022-10-18T05:19:37;17.40;99.90
17621;DHT22;8929;51.008;6.804;2022-10-18T05:22:03;17.40;99.90
17621;DHT22;8929;51.008;6.804;2022-10-18T05:24:28;17.50;99.90
17621;DHT22;8929;51.008;6.804;2022-10-18T05:26:54;17.50;99.90
17621;DHT22;8929;51.008;6.804;2022-10-18T05:29:19;17.40;99.90
17621;DHT22;8929;51.008;6.804;2022-10-18T05:31:45;17.40;99.90
17621;DHT22;8929;51.008;6.804;2022-10-18T05:34:10;17.50;99.90
17621;DHT22;8929;51.008;6.804;2022-10-18T05:36:36;17.60;99.90
17621;DHT22;8929;51.008;6.804;2022-10-18T05:39:02;17.50;99.90
17621;DHT22;8929;51.008;6.804;2022-10-18T05:41:28;17.40;99.90
17621;DHT22;8929;51.008;6.804;2022-10-18T05:43:53;17.60;99.90
17621;DHT22;8929;51.008;6.804;2022-10-18T05:46:19;17.40;99.90
17621;DHT22;8929;51.008;6.804;2022-10-18T05:48:48;17.40;99.90
17621;DHT22;8929;51.008;6.804;2022-10-18T05:51:13;17.40;99.90
17621;DHT22;8929;51.008;6.804;2022-10-18T05:53:39;17.40;99.90
17621;DHT22;8929;51.008;6.804;2022-10-18T05:56:05;17.50;99.90
17621;DHT22;8929;51.008;6.804;2022-10-18T05:58:31;17.40;99.90
17621;DHT22;8929;51.008;6.804;2022-10-18T06:01:00;17.40;99.90
17621;DHT22;8929;51.008;6.804;2022-10-18T06:03:26;17.40;99.90
17621;DHT22;8929;51.008;6.804;2022-10-18T06:05:52;17.50;99.90
17621;DHT22;8929;51.008;6.804;2022-10-18T06:08:17;17.50;99.90
17621;DHT22;8929;51.008;6.804;2022-10-18T06:10:43;17.60;99.90
17621;DHT22;8929;51.008;6.804;2022-10-18T06:13:08;17.60;99.90
17621;DHT22;8929;51.008;6.804;2022-10-18T06:15:34;17.50;99.90
17621;DHT22;8929;51.008;6.804;2022-10-18T06:17:59;17.50;99.90
17621;DHT22;8929;51.008;6.804;2022-10-18T06:20:24;17.60;99.90
17621;DHT22;8929;51.008;6.804;2022-10-18T06:22:51;17.50;99.90
17621;DHT22;8929;51.008;6.804;2022-10-18T06:25:16;17.50;99.90
17621;DHT22;8929;51.008;6.804;2022-10-18T06:27:42;17.50;99.90
17621;DHT22;8929;51.008;6.804;2022-10-18T06:30:07;17.70;99.90
17621;DHT22;8929;51.008;6.804;2022-10-18T06:32:33;17.60;99.90
17621;DHT22;8929;51.008;6.804;2022-10-18T06:34:58;17.60;99.90
17621;DHT22;8929;51.008;6.804;2022-10-18T06:37:24;17.60;99.90
17621;DHT22;8929;51.008;6.804;2022-10-18T06:39:49;17.60;99.90
17621;DHT22;8929;51.008;6.804;2022-10-18T06:42:15;17.60;99.90
17621;DHT22;8929;51.008;6.804;2022-10-18T06:44:40;17.60;99.90
17621;DHT22;8929;51.008;6.804;2022-10-18T06:47:06;17.60;99.90
17621;DHT22;8929;51.008;6.804;2022-10-18T06:49:31;17.60;99.90
17621;DHT22;8929;51.008;6.804;2022-10-18T06:51:57;17.70;99.90
17621;DHT22;8929;51.008;6.804;2022-10-18T06:54:22;17.70;99.90
17621;DHT22;8929;51.008;6.804;2022-10-18T06:56:48;17.80;99.90
17621;DHT22;8929;51.008;6.804;2022-10-18T06:59:13;17.70;99.90
17621;DHT22;8929;51.008;6.804;2022-10-18T07:01:39;17.80;99.90
17621;DHT22;8929;51.008;6.804;2022-10-18T07:04:04;17.80;99.90
17621;DHT22;8929;51.008;6.804;2022-10-18T07:06:30;17.80;99.90
17621;DHT22;8929;51.008;6.804;2022-10-18T07:08:55;17.80;99.90
17621;DHT22;8929;51.008;6.804;2022-10-18T07:11:22;17.90;99.90
17621;DHT22;8929;51.008;6.804;2022-10-18T07:13:48;17.90;99.90
17621;DHT22;8929;51.008;6.804;2022-10-18T07:16:14;18.00;99.90
17621;DHT22;8929;51.008;6.804;2022-10-18T07:18:43;17.90;99.90
17621;DHT22;8929;51.008;6.804;2022-10-18T07:21:09;17.90;99.90
17621;DHT22;8929;51.008;6.804;2022-10-18T07:23:37;17.80;99.90
17621;DHT22;8929;51.008;6.804;2022-10-18T07:26:03;17.80;99.90
17621;DHT22;8929;51.008;6.804;2022-10-18T07:28:35;17.80;99.90
17621;DHT22;8929;51.008;6.804;2022-10-18T07:31:03;17.80;99.90
17621;DHT22;8929;51.008;6.804;2022-10-18T07:33:28;17.70;99.90
17621;DHT22;8929;51.008;6.804;2022-10-18T07:35:54;17.80;99.90
17621;DHT22;8929;51.008;6.804;2022-10-18T07:38:19;17.60;99.90
17621;DHT22;8929;51.008;6.804;2022-10-18T07:40:45;17.60;99.90
17621;DHT22;8929;51.008;6.804;2022-10-18T07:43:10;17.70;99.90
17621;DHT22;8929;51.008;6.804;2022-10-18T07:45:36;17.70;99.90
17621;DHT22;8929;51.008;6.804;2022-10-18T07:48:01;17.80;99.90
17621;DHT22;8929;51.008;6.804;2022-10-18T07:50:27;17.70;99.90
17621;DHT22;8929;51.008;6.804;2022-10-18T07:52:52;17.80;99.90
17621;DHT22;8929;51.008;6.804;2022-10-18T07:55:18;17.80;99.90
17621;DHT22;8929;51.008;6.804;2022-10-18T07:57:43;17.80;99.90
17621;DHT22;8929;51.008;6.804;2022-10-18T08:00:09;17.80;99.90
17621;DHT22;8929;51.008;6.804;2022-10-18T08:02:35;17.90;99.90
17621;DHT22;8929;51.008;6.804;2022-10-18T08:05:01;18.00;99.90
17621;DHT22;8929;51.008;6.804;2022-10-18T08:07:26;18.00;99.90
17621;DHT22;8929;51.008;6.804;2022-10-18T08:09:52;18.10;99.90
17621;DHT22;8929;51.008;6.804;2022-10-18T08:12:17;18.10;99.90
17621;DHT22;8929;51.008;6.804;2022-10-18T08:14:43;18.20;99.90
17621;DHT22;8929;51.008;6.804;2022-10-18T08:17:08;18.10;99.90
17621;DHT22;8929;51.008;6.804;2022-10-18T08:19:34;18.10;99.90
17621;DHT22;8929;51.008;6.804;2022-10-18T08:21:59;18.20;99.90
17621;DHT22;8929;51.008;6.804;2022-10-18T08:24:24;18.30;99.90
17621;DHT22;8929;51.008;6.804;2022-10-18T08:26:50;18.40;99.90
17621;DHT22;8929;51.008;6.804;2022-10-18T08:29:15;18.50;99.90
17621;DHT22;8929;51.008;6.804;2022-10-18T08:31:41;18.50;99.90
17621;DHT22;8929;51.008;6.804;2022-10-18T08:34:06;18.60;99.90
17621;DHT22;8929;51.008;6.804;2022-10-18T08:36:32;18.50;99.90
17621;DHT22;8929;51.008;6.804;2022-10-18T08:38:58;18.40;99.90
17621;DHT22;8929;51.008;6.804;2022-10-18T08:43:57;18.10;99.90
17621;DHT22;8929;51.008;6.804;2022-10-18T08:46:24;18.20;99.90
17621;DHT22;8929;51.008;6.804;2022-10-18T08:48:50;18.10;99.90
17621;DHT22;8929;51.008;6.804;2022-10-18T08:53:52;18.20;99.90
17621;DHT22;8929;51.008;6.804;2022-10-18T08:56:18;18.30;99.90
17621;DHT22;8929;51.008;6.804;2022-10-18T08:58:48;18.30;99.90
17621;DHT22;8929;51.008;6.804;2022-10-18T09:01:26;18.20;99.90
17621;DHT22;8929;51.008;6.804;2022-10-18T09:06:49;18.40;99.90
17621;DHT22;8929;51.008;6.804;2022-10-18T09:09:22;18.50;99.90
17621;DHT22;8929;51.008;6.804;2022-10-18T09:14:47;18.50;99.90
17621;DHT22;8929;51.008;6.804;2022-10-18T09:22:51;18.80;99.90
17621;DHT22;8929;51.008;6.804;2022-10-18T09:30:18;19.40;99.90
17621;DHT22;8929;51.008;6.804;2022-10-18T09:35:24;19.70;99.90
17621;DHT22;8929;51.008;6.804;2022-10-18T09:37:54;19.60;99.90
17621;DHT22;8929;51.008;6.804;2022-10-18T09:40:24;19.50;99.90
17621;DHT22;8929;51.008;6.804;2022-10-18T09:47:44;19.80;99.90
17621;DHT22;8929;51.008;6.804;2022-10-18T09:52:43;19.90;99.90
17621;DHT22;8929;51.008;6.804;2022-10-18T09:55:20;20.00;99.90
17621;DHT22;8929;51.008;6.804;2022-10-18T09:57:47;20.00;99.90
17621;DHT22;8929;51.008;6.804;2022-10-18T10:00:16;20.10;99.90
17621;DHT22;8929;51.008;6.804;2022-10-18T10:02:42;20.20;99.90
17621;DHT22;8929;51.008;6.804;2022-10-18T10:05:14;20.20;99.90
17621;DHT22;8929;51.008;6.804;2022-10-18T10:07:40;20.10;99.90
17621;DHT22;8929;51.008;6.804;2022-10-18T10:10:12;20.10;99.90
17621;DHT22;8929;51.008;6.804;2022-10-18T10:12:39;20.10;99.90
17621;DHT22;8929;51.008;6.804;2022-10-18T10:17:33;20.00;99.90
17621;DHT22;8929;51.008;6.804;2022-10-18T10:19:59;20.10;99.90
17621;DHT22;8929;51.008;6.804;2022-10-18T10:22:35;20.10;99.90
17621;DHT22;8929;51.008;6.804;2022-10-18T10:25:01;20.00;99.90
17621;DHT22;8929;51.008;6.804;2022-10-18T10:27:36;20.00;99.90
17621;DHT22;8929;51.008;6.804;2022-10-18T10:30:52;19.90;99.90
17621;DHT22;8929;51.008;6.804;2022-10-18T10:32:53;19.80;99.90
17621;DHT22;8929;51.008;6.804;2022-10-18T10:35:20;19.70;99.90
17621;DHT22;8929;51.008;6.804;2022-10-18T10:37:49;19.80;99.90
17621;DHT22;8929;51.008;6.804;2022-10-18T10:40:16;20.00;99.90
17621;DHT22;8929;51.008;6.804;2022-10-18T10:42:56;19.80;99.90
17621;DHT22;8929;51.008;6.804;2022-10-18T10:45:22;19.70;99.90
17621;DHT22;8929;51.008;6.804;2022-10-18T10:47:48;19.80;99.90
17621;DHT22;8929;51.008;6.804;2022-10-18T10:50:20;19.80;99.90
17621;DHT22;8929;51.008;6.804;2022-10-18T10:52:46;19.70;99.90
17621;DHT22;8929;51.008;6.804;2022-10-18T10:55:17;19.70;99.90
17621;DHT22;8929;51.008;6.804;2022-10-18T10:57:46;19.60;99.90
17621;DHT22;8929;51.008;6.804;2022-10-18T11:03:04;19.30;99.90
17621;DHT22;8929;51.008;6.804;2022-10-18T11:05:30;19.30;99.90
17621;DHT22;8929;51.008;6.804;2022-10-18T11:07:56;19.30;99.90
17621;DHT22;8929;51.008;6.804;2022-10-18T11:10:23;19.30;99.90
17621;DHT22;8929;51.008;6.804;2022-10-18T11:13:02;19.50;99.90
17621;DHT22;8929;51.008;6.804;2022-10-18T11:15:39;19.50;99.90
17621;DHT22;8929;51.008;6.804;2022-10-18T11:18:09;19.60;99.90
17621;DHT22;8929;51.008;6.804;2022-10-18T11:23:42;19.80;99.90
17621;DHT22;8929;51.008;6.804;2022-10-18T11:33:44;20.90;99.90
17621;DHT22;8929;51.008;6.804;2022-10-18T11:41:26;22.80;99.90
17621;DHT22;8929;51.008;6.804;2022-10-18T11:43:57;23.30;99.90
17621;DHT22;8929;51.008;6.804;2022-10-18T11:46:36;23.20;99.90
17621;DHT22;8929;51.008;6.804;2022-10-18T11:49:14;23.70;99.90
17621;DHT22;8929;51.008;6.804;2022-10-18T11:51:48;24.40;99.90
17621;DHT22;8929;51.008;6.804;2022-10-18T12:04:18;24.20;99.90
17621;DHT22;8929;51.008;6.804;2022-10-18T12:06:45;24.40;99.90
17621;DHT22;8929;51.008;6.804;2022-10-18T12:09:24;24.70;99.90
17621;DHT22;8929;51.008;6.804;2022-10-18T12:11:56;24.60;99.90
17621;DHT22;8929;51.008;6.804;2022-10-18T12:14:27;24.50;99.90
17621;DHT22;8929;51.008;6.804;2022-10-18T12:16:54;24.10;99.90
17621;DHT22;8929;51.008;6.804;2022-10-18T12:19:24;23.80;99.90
17621;DHT22;8929;51.008;6.804;2022-10-18T12:21:50;25.00;99.90
17621;DHT22;8929;51.008;6.804;2022-10-18T12:24:19;26.10;99.90
17621;DHT22;8929;51.008;6.804;2022-10-18T12:26:46;26.40;99.90
17621;DHT22;8929;51.008;6.804;2022-10-18T12:29:17;26.80;99.90
17621;DHT22;8929;51.008;6.804;2022-10-18T12:31:51;26.00;99.90
17621;DHT22;8929;51.008;6.804;2022-10-18T12:37:33;24.30;99.90
17621;DHT22;8929;51.008;6.804;2022-10-18T12:39:35;24.00;99.90
17621;DHT22;8929;51.008;6.804;2022-10-18T12:42:03;24.20;99.90
17621;DHT22;8929;51.008;6.804;2022-10-18T12:44:32;24.10;99.90
17621;DHT22;8929;51.008;6.804;2022-10-18T12:46:59;24.00;99.90
17621;DHT22;8929;51.008;6.804;2022-10-18T12:49:35;23.80;99.90
17621;DHT22;8929;51.008;6.804;2022-10-18T12:52:05;23.80;99.90
17621;DHT22;8929;51.008;6.804;2022-10-18T12:54:33;23.80;99.90
17621;DHT22;8929;51.008;6.804;2022-10-18T12:56:59;23.30;99.90
17621;DHT22;8929;51.008;6.804;2022-10-18T13:11:52;22.30;99.90
17621;DHT22;8929;51.008;6.804;2022-10-18T13:14:24;22.60;99.90
17621;DHT22;8929;51.008;6.804;2022-10-18T13:19:48;22.50;99.90
17621;DHT22;8929;51.008;6.804;2022-10-18T13:27:43;22.30;99.90
17621;DHT22;8929;51.008;6.804;2022-10-18T13:35:40;22.30;99.90
17621;DHT22;8929;51.008;6.804;2022-10-18T13:38:00;22.30;99.90
17621;DHT22;8929;51.008;6.804;2022-10-18T13:40:26;22.50;99.90
17621;DHT22;8929;51.008;6.804;2022-10-18T13:42:52;22.30;99.90
17621;DHT22;8929;51.008;6.804;2022-10-18T13:47:56;22.40;99.90
17621;DHT22;8929;51.008;6.804;2022-10-18T13:50:23;22.20;99.90
17621;DHT22;8929;51.008;6.804;2022-10-18T13:52:57;21.70;99.90
17621;DHT22;8929;51.008;6.804;2022-10-18T13:55:43;21.50;99.90
17621;DHT22;8929;51.008;6.804;2022-10-18T13:58:32;21.40;99.90
17621;DHT22;8929;51.008;6.804;2022-10-18T14:01:06;21.90;99.90
17621;DHT22;8929;51.008;6.804;2022-10-18T14:06:31;22.60;99.90
17621;DHT22;8929;51.008;6.804;2022-10-18T14:09:02;22.20;99.90
17621;DHT22;8929;51.008;6.804;2022-10-18T14:11:33;21.80;99.90
17621;DHT22;8929;51.008;6.804;2022-10-18T14:14:05;21.70;99.90
17621;DHT22;8929;51.008;6.804;2022-10-18T14:16:35;21.40;99.90
17621;DHT22;8929;51.008;6.804;2022-10-18T14:19:10;21.80;99.90
17621;DHT22;8929;51.008;6.804;2022-10-18T14:21:37;23.10;99.90
17621;DHT22;8929;51.008;6.804;2022-10-18T14:24:09;24.30;99.90
17621;DHT22;8929;51.008;6.804;2022-10-18T14:26:36;24.20;99.90
17621;DHT22;8929;51.008;6.804;2022-10-18T14:29:03;23.90;99.90
17621;DHT22;8929;51.008;6.804;2022-10-18T14:31:29;23.40;99.90
17621;DHT22;8929;51.008;6.804;2022-10-18T14:33:55;23.00;99.90
17621;DHT22;8929;51.008;6.804;2022-10-18T14:36:21;22.90;99.90
17621;DHT22;8929;51.008;6.804;2022-10-18T14:41:24;22.50;99.90
17621;DHT22;8929;51.008;6.804;2022-10-18T14:43:50;21.90;99.90
17621;DHT22;8929;51.008;6.804;2022-10-18T14:48:41;21.20;99.90
17621;DHT22;8929;51.008;6.804;2022-10-18T14:51:08;21.00;99.90
17621;DHT22;8929;51.008;6.804;2022-10-18T14:53:36;20.90;99.90
17621;DHT22;8929;51.008;6.804;2022-10-18T14:56:03;20.90;99.90
17621;DHT22;8929;51.008;6.804;2022-10-18T14:58:29;20.80;99.90
17621;DHT22;8929;51.008;6.804;2022-10-18T15:00:54;20.60;99.90
17621;DHT22;8929;51.008;6.804;2022-10-18T15:03:20;20.60;99.90
17621;DHT22;8929;51.008;6.804;2022-10-18T15:05:53;20.50;99.90
17621;DHT22;8929;51.008;6.804;2022-10-18T15:08:19;20.40;99.90
17621;DHT22;8929;51.008;6.804;2022-10-18T15:10:45;20.10;99.90
17621;DHT22;8929;51.008;6.804;2022-10-18T15:13:11;20.10;99.90
17621;DHT22;8929;51.008;6.804;2022-10-18T15:15:37;20.00;99.90
17621;DHT22;8929;51.008;6.804;2022-10-18T15:18:03;19.90;99.90
17621;DHT22;8929;51.008;6.804;2022-10-18T15:25:40;19.70;99.90
17621;DHT22;8929;51.008;6.804;2022-10-18T15:28:15;19.60;99.90
17621;DHT22;8929;51.008;6.804;2022-10-18T15:30:45;19.50;99.90
17621;DHT22;8929;51.008;6.804;2022-10-18T15:33:20;19.40;99.90
17621;DHT22;8929;51.008;6.804;2022-10-18T15:35:46;19.40;99.90
17621;DHT22;8929;51.008;6.804;2022-10-18T15:38:13;19.20;99.90
17621;DHT22;8929;51.008;6.804;2022-10-18T15:40:39;19.20;99.90
17621;DHT22;8929;51.008;6.804;2022-10-18T15:43:32;19.10;99.90
17621;DHT22;8929;51.008;6.804;2022-10-18T15:45:51;19.10;99.90
17621;DHT22;8929;51.008;6.804;2022-10-18T15:48:25;19.00;99.90
17621;DHT22;8929;51.008;6.804;2022-10-18T15:53:44;18.90;99.90
17621;DHT22;8929;51.008;6.804;2022-10-18T15:56:30;18.80;99.90
17621;DHT22;8929;51.008;6.804;2022-10-18T15:58:57;18.70;99.90
17621;DHT22;8929;51.008;6.804;2022-10-18T16:01:26;18.60;99.90
17621;DHT22;8929;51.008;6.804;2022-10-18T16:03:54;18.40;99.90
17621;DHT22;8929;51.008;6.804;2022-10-18T16:06:19;18.30;99.90
17621;DHT22;8929;51.008;6.804;2022-10-18T16:08:46;18.30;99.90
17621;DHT22;8929;51.008;6.804;2022-10-18T16:11:13;18.20;99.90
17621;DHT22;8929;51.008;6.804;2022-10-18T16:13:39;18.10;99.90
17621;DHT22;8929;51.008;6.804;2022-10-18T16:16:05;18.00;99.90
17621;DHT22;8929;51.008;6.804;2022-10-18T16:18:30;17.90;99.90
17621;DHT22;8929;51.008;6.804;2022-10-18T16:20:56;17.90;99.90
17621;DHT22;8929;51.008;6.804;2022-10-18T16:23:22;17.80;99.90
17621;DHT22;8929;51.008;6.804;2022-10-18T16:25:48;17.70;99.90
17621;DHT22;8929;51.008;6.804;2022-10-18T16:28:21;17.60;99.90
17621;DHT22;8929;51.008;6.804;2022-10-18T16:30:54;17.40;99.90
17621;DHT22;8929;51.008;6.804;2022-10-18T16:33:20;17.30;99.90
17621;DHT22;8929;51.008;6.804;2022-10-18T16:35:46;17.20;99.90
17621;DHT22;8929;51.008;6.804;2022-10-18T16:38:34;17.10;99.90
17621;DHT22;8929;51.008;6.804;2022-10-18T16:41:00;17.00;99.90
17621;DHT22;8929;51.008;6.804;2022-10-18T16:43:26;16.90;99.90
17621;DHT22;8929;51.008;6.804;2022-10-18T16:45:52;16.80;99.90
17621;DHT22;8929;51.008;6.804;2022-10-18T16:48:20;16.70;99.90
17621;DHT22;8929;51.008;6.804;2022-10-18T16:50:46;16.60;99.90
17621;DHT22;8929;51.008;6.804;2022-10-18T16:53:12;16.50;99.90
17621;DHT22;8929;51.008;6.804;2022-10-18T16:55:38;16.40;99.90
17621;DHT22;8929;51.008;6.804;2022-10-18T16:58:04;16.30;99.90
17621;DHT22;8929;51.008;6.804;2022-10-18T17:00:30;16.20;99.90
17621;DHT22;8929;51.008;6.804;2022-10-18T17:02:56;16.10;99.90
17621;DHT22;8929;51.008;6.804;2022-10-18T17:08:25;16.00;99.90
17621;DHT22;8929;51.008;6.804;2022-10-18T17:10:52;15.90;99.90
17621;DHT22;8929;51.008;6.804;2022-10-18T17:13:18;15.80;99.90
17621;DHT22;8929;51.008;6.804;2022-10-18T17:15:44;15.80;99.90
17621;DHT22;8929;51.008;6.804;2022-10-18T17:18:14;15.70;99.90
17621;DHT22;8929;51.008;6.804;2022-10-18T17:20:40;15.70;99.90
17621;DHT22;8929;51.008;6.804;2022-10-18T17:23:06;15.60;99.90
17621;DHT22;8929;51.008;6.804;2022-10-18T17:25:34;15.60;99.90
17621;DHT22;8929;51.008;6.804;2022-10-18T17:27:59;15.50;99.90
17621;DHT22;8929;51.008;6.804;2022-10-18T17:30:25;15.50;99.90
17621;DHT22;8929;51.008;6.804;2022-10-18T17:32:50;15.40;99.90
17621;DHT22;8929;51.008;6.804;2022-10-18T17:35:16;15.30;99.90
17621;DHT22;8929;51.008;6.804;2022-10-18T17:37:41;15.30;99.90
17621;DHT22;8929;51.008;6.804;2022-10-18T17:40:07;15.30;99.90
17621;DHT22;8929;51.008;6.804;2022-10-18T17:42:33;15.20;99.90
17621;DHT22;8929;51.008;6.804;2022-10-18T17:44:58;15.20;99.90
17621;DHT22;8929;51.008;6.804;2022-10-18T17:47:24;15.20;99.90
17621;DHT22;8929;51.008;6.804;2022-10-18T17:49:49;15.20;99.90
17621;DHT22;8929;51.008;6.804;2022-10-18T17:52:15;15.10;99.90
17621;DHT22;8929;51.008;6.804;2022-10-18T17:54:40;15.10;99.90
17621;DHT22;8929;51.008;6.804;2022-10-18T17:57:06;15.00;99.90
17621;DHT22;8929;51.008;6.804;2022-10-18T17:59:31;15.00;99.90
17621;DHT22;8929;51.008;6.804;2022-10-18T18:01:57;14.90;99.90
17621;DHT22;8929;51.008;6.804;2022-10-18T18:04:22;14.90;99.90
17621;DHT22;8929;51.008;6.804;2022-10-18T18:06:50;14.80;99.90
17621;DHT22;8929;51.008;6.804;2022-10-18T18:09:17;14.80;99.90
17621;DHT22;8929;51.008;6.804;2022-10-18T18:11:43;14.80;99.90